1978 FAYE (1978237N06160)


On this page: IBTrACS data - Map and Plots - Positions - Intensities - Original source data

Summary

Start Aug 25
End Sep 11
Basin WP
LMI 117 kt
Sources jtwc_wp
tokyo
cma
hko
td9636
ds824_wp
In WMO? Yes
Previous storm 1978 MIRIAM (EP)
Previous in basin 1978 ELAINE (WP)
Concurrent storms 1978 ELAINE (WP)
1978 JOHN (EP)
1978 KRISTY (EP)
1978 MIRIAM (EP)
1978 FAYE (WP)
1978 DEBRA (NA)
1978 GLORIA (WP)
1978 HESTER (WP)
1978 ELLA (NA)
1978 NORMAN (EP)
1978 MISSING (NA)
1978 FLOSSIE (NA)
1978 MISSING (NA)
1978 MISSING (EP)
1978 TD0909 (WP)
1978 IRMA (WP)
1978 JUDY (WP)
1978 MISSING (NA)
1978 IRMA (WP)
Next in basin 1978 GLORIA (WP)
Next storm 1978 DEBRA (NA)

top of page IBTrACS Data: File Access

No storm imagery available

top of page Plots:

Map of storm track will not appear if FTP is down
Time series of cyclone Maximum Sustained Wind will not appear if FTP is down
Time series of cyclone Minimum Central Pressure will not appear if FTP is down

top of page Track Data:Position

jtwc_wp tokyo cma hko td9636 ds824_wp
Date Lat Lon Lat Lon Lat Lon Lat Lon Lat Lon Lat Lon
1978-08-25 00:00:00 5.7 160.1 5.7 160.1 5.7 160.1
1978-08-25 06:00:00 6.0 158.8 6.0 158.8 6.0 158.8
1978-08-25 12:00:00 6.3 157.5 6.3 157.5 6.3 157.5
1978-08-25 18:00:00 6.6 156.2 6.6 156.2 6.6 156.2
1978-08-26 00:00:00 7.0 155.0 7.0 155.0 7.0 155.0
1978-08-26 06:00:00 7.4 153.8 7.4 153.8 7.4 153.8
1978-08-26 12:00:00 7.9 152.6 7.9 152.6 7.9 152.6
1978-08-26 18:00:00 8.4 151.5 8.4 151.4 8.4 151.5
1978-08-27 00:00:00 9.1 150.3 9.1 150.3 9.1 150.3
1978-08-27 06:00:00 9.9 149.2 10.5 149.0 10.0 149.0 9.9 149.1 9.9 149.2
1978-08-27 12:00:00 10.8 148.0 11.2 148.0 10.9 148.1 10.8 148.0 10.8 148.0
1978-08-27 18:00:00 11.9 146.9 12.0 147.0 11.9 147.2 11.9 146.9 11.9 146.9
1978-08-28 00:00:00 13.0 146.0 12.8 146.1 12.8 146.2 12.9 146.2 13.0 146.0 13.0 146.0
1978-08-28 06:00:00 14.0 145.4 14.1 145.5 13.9 145.5 14.1 145.5 14.0 145.5 14.0 145.4
1978-08-28 12:00:00 15.0 145.2 15.2 145.1 14.9 145.1 15.0 145.2 15.0 145.2 15.0 145.2
1978-08-28 18:00:00 15.9 145.1 16.1 145.0 16.0 145.0 15.9 145.0 15.9 145.1 15.9 145.1
1978-08-29 00:00:00 16.8 145.1 16.7 145.1 16.7 145.1 16.7 145.0 16.8 145.1 16.8 145.1
1978-08-29 06:00:00 17.6 145.2 17.7 145.3 17.7 145.2 17.7 145.1 17.7 145.1 17.6 145.2
1978-08-29 12:00:00 18.4 145.4 18.6 145.6 18.8 145.5 18.7 145.3 18.4 145.4 18.4 145.4
1978-08-29 18:00:00 18.9 146.1 19.2 146.2 19.2 146.1 19.2 146.1 18.9 146.1 18.9 146.1
1978-08-30 00:00:00 19.2 146.9 19.2 146.7 19.3 146.7 19.2 146.7 19.2 146.9 19.2 146.9
1978-08-30 06:00:00 19.2 147.4 19.1 147.3 19.2 147.3 19.1 147.4 19.2 147.4 19.2 147.4
1978-08-30 12:00:00 19.0 147.9 18.8 147.9 19.0 147.9 18.9 148.1 19.0 147.9 19.0 147.9
1978-08-30 18:00:00 18.5 148.4 18.6 148.6 18.7 148.4 18.5 148.7 18.5 148.4 18.5 148.4
1978-08-31 00:00:00 18.0 148.8 18.2 148.9 18.2 148.8 18.1 148.9 18.0 148.8 18.0 148.8
jtwc_wp tokyo cma hko td9636 ds824_wp
1978-08-31 06:00:00 17.6 148.8 17.6 148.7 17.8 148.7 17.6 148.8 17.6 148.8 17.6 148.8
1978-08-31 12:00:00 17.3 148.5 17.4 148.5 17.4 148.4 17.3 148.5 17.3 148.5 17.3 148.5
1978-08-31 18:00:00 17.1 148.1 17.1 148.0 17.1 148.0 17.0 148.1 17.1 148.1 17.1 148.1
1978-09-01 00:00:00 17.0 147.5 17.0 147.4 17.0 147.4 16.9 147.4 17.0 147.5 17.0 147.5
1978-09-01 06:00:00 17.1 146.7 17.2 146.7 17.2 146.7 17.1 146.7 17.1 146.8 17.1 146.7
1978-09-01 12:00:00 17.5 146.0 17.7 146.0 17.7 146.0 17.6 146.1 17.5 146.0 17.5 146.0
1978-09-01 18:00:00 18.2 145.4 18.3 145.3 18.4 145.3 18.3 145.4 18.2 145.4 18.2 145.4
1978-09-02 00:00:00 19.0 144.9 19.0 144.9 19.0 144.9 19.0 144.9 19.0 144.9 19.0 144.9
1978-09-02 06:00:00 19.9 144.3 19.8 144.4 19.8 144.3 19.9 144.2 19.9 144.3 19.9 144.3
1978-09-02 12:00:00 20.7 143.5 20.7 143.7 20.8 143.5 20.8 143.5 20.7 143.5 20.7 143.5
1978-09-02 18:00:00 21.4 142.5 21.6 142.5 21.6 142.5 21.5 142.5 21.4 142.5 21.4 142.5
1978-09-03 00:00:00 22.1 141.3 22.2 141.3 22.2 141.2 22.2 141.3 22.1 141.3 22.1 141.3
1978-09-03 06:00:00 23.0 140.0 23.0 140.1 23.2 140.0 23.0 140.1 23.0 140.0 23.0 140.0
1978-09-03 12:00:00 24.0 138.8 24.1 138.9 24.1 139.0 23.9 139.0 24.0 138.8 24.0 138.8
1978-09-03 18:00:00 25.1 137.8 25.0 137.8 25.0 137.8 25.0 137.8 25.1 137.7 25.1 137.8
1978-09-04 00:00:00 26.1 136.8 25.8 136.9 26.0 136.8 26.0 136.8 26.1 136.8 26.1 136.8
1978-09-04 06:00:00 27.0 135.9 27.1 135.8 27.0 135.8 27.0 135.7 27.0 135.8 27.0 135.9
1978-09-04 12:00:00 27.8 135.0 27.9 135.0 27.8 135.0 27.7 135.0 27.8 135.0 27.8 135.0
1978-09-04 18:00:00 28.5 134.6 28.5 134.7 28.5 134.6 28.5 134.7 28.5 134.7 28.5 134.6
1978-09-05 00:00:00 29.1 134.9 29.2 134.7 29.1 134.9 29.2 134.9 29.1 134.9 29.1 134.9
1978-09-05 06:00:00 29.7 135.7 29.7 135.5 29.6 135.4 29.8 135.5 29.6 135.6 29.7 135.7
1978-09-05 12:00:00 30.0 136.5 30.0 136.5 30.0 136.3 30.2 136.3 30.0 136.5 30.0 136.5
1978-09-05 18:00:00 30.1 137.4 30.2 137.2 30.2 137.2 30.3 137.3 30.2 137.4 30.1 137.4
1978-09-06 00:00:00 30.2 138.2 30.2 138.2 30.3 138.2 30.4 138.2 30.2 138.2 30.2 138.2
jtwc_wp tokyo cma hko td9636 ds824_wp
1978-09-06 06:00:00 30.2 138.9 30.2 139.1 30.4 138.9 30.4 138.8 30.2 138.9 30.2 138.9
1978-09-06 12:00:00 30.3 139.5 30.3 139.7 30.6 139.4 30.4 139.4 30.3 139.5 30.3 139.5
1978-09-06 18:00:00 30.5 140.0 30.5 140.0 30.7 139.9 30.4 139.9 30.5 140.0 30.5 140.0
1978-09-07 00:00:00 30.7 140.5 30.7 140.5 30.8 140.4 30.4 140.4 30.7 140.5 30.7 140.5
1978-09-07 06:00:00 30.7 141.0 30.7 141.1 30.9 141.1 30.4 141.1 30.7 141.0 30.7 141.0
1978-09-07 12:00:00 30.6 141.6 30.4 141.5 30.9 141.5 30.5 141.7 30.6 141.6 30.6 141.6
1978-09-07 18:00:00 30.6 142.0 30.2 142.0 30.9 142.2 30.5 142.2 30.6 142.0 30.6 142.0
1978-09-08 00:00:00 30.4 142.6 31.0 142.8 30.6 142.9 30.8 142.8
1978-09-08 06:00:00 30.7 143.5 31.1 143.4 30.8 143.5 31.1 144.4
1978-09-08 12:00:00 31.0 144.2 31.2 144.0 31.0 144.2 31.5 146.1
1978-09-08 18:00:00 31.2 145.1 31.3 144.8 31.2 144.9 32.1 147.0
1978-09-09 00:00:00 31.5 146.0 31.4 145.6 31.4 145.6 32.8 147.5
1978-09-09 06:00:00 31.7 146.5 31.5 146.4 31.6 146.3
1978-09-09 12:00:00 32.0 147.1 31.7 147.2 32.0 147.0
1978-09-09 18:00:00 32.2 147.7 32.1 147.8 32.4 147.7
1978-09-10 00:00:00 32.7 148.4 32.7 148.4 32.9 148.3
1978-09-10 06:00:00 34.0 149.5 34.0 149.5 33.9 149.5
1978-09-10 12:00:00 35.0 150.9 35.0 151.0 35.0 151.0
1978-09-10 18:00:00 36.0 152.0 36.0 152.5
1978-09-11 00:00:00 37.0 154.0 37.0 154.0
1978-09-11 06:00:00 37.5 156.0

top of pageTrack Data:Intensity

jtwc_wp tokyo cma hko td9636 ds824_wp
Date Wind Pres Wind Pres Wind Pres Wind Pres Wind Pres Wind Pres
1978-08-25 00:00:00 20. 20. 20.
1978-08-25 06:00:00 20. 20. 20.
1978-08-25 12:00:00 20. 20. 20.
1978-08-25 18:00:00 20. 20. 20.
1978-08-26 00:00:00 20. 20. 20.
1978-08-26 06:00:00 20. 20. 20.
1978-08-26 12:00:00 25. 25. 25.
1978-08-26 18:00:00 25. 25. 25.
1978-08-27 00:00:00 25. 25. 25.
1978-08-27 06:00:00 25. 1006. 1008. 25. 25.
1978-08-27 12:00:00 25. 1004. 1006. 25. 25.
1978-08-27 18:00:00 25. 1002. 23. 1006. 25. 25.
1978-08-28 00:00:00 30. 1000. 29. 1000. 25. 1000. 30. 30.
1978-08-28 06:00:00 30. 998. 29. 996. 25. 995. 30. 30.
1978-08-28 12:00:00 35. 35. 998. 39. 996. 30. 995. 35. 35.
1978-08-28 18:00:00 35. 35. 998. 39. 996. 30. 995. 35. 35.
1978-08-29 00:00:00 40. 45. 996. 49. 994. 35. 995. 40. 40.
1978-08-29 06:00:00 40. 45. 994. 49. 992. 35. 995. 40. 40.
1978-08-29 12:00:00 45. 45. 992. 49. 990. 35. 995. 45. 45.
1978-08-29 18:00:00 45. 45. 990. 49. 990. 35. 990. 45. 45.
1978-08-30 00:00:00 45. 45. 985. 49. 988. 35. 990. 45. 45.
1978-08-30 06:00:00 50. 55. 985. 58. 985. 40. 985. 45. 50.
1978-08-30 12:00:00 50. 55. 985. 58. 985. 40. 985. 50. 50.
1978-08-30 18:00:00 50. 55. 985. 58. 985. 40. 985. 50. 50.
1978-08-31 00:00:00 50. 55. 985. 58. 985. 40. 985. 50. 50.
jtwc_wp tokyo cma hko td9636 ds824_wp
1978-08-31 06:00:00 50. 55. 985. 58. 985. 45. 985. 50. 50.
1978-08-31 12:00:00 50. 55. 985. 58. 985. 45. 985. 50. 50.
1978-08-31 18:00:00 55. 55. 985. 58. 985. 45. 985. 50. 55.
1978-09-01 00:00:00 60. 55. 985. 58. 985. 45. 985. 60. 60.
1978-09-01 06:00:00 60. 65. 980. 68. 980. 50. 980. 60. 60.
1978-09-01 12:00:00 65. 65. 975. 68. 975. 55. 970. 65. 65.
1978-09-01 18:00:00 65. 65. 970. 78. 965. 60. 960. 65. 65.
1978-09-02 00:00:00 70. 70. 950. 87. 950. 65. 950. 70. 70.
1978-09-02 06:00:00 85. 90. 935. 117. 937. 80. 935. 70. 85.
1978-09-02 12:00:00 100. 90. 935. 117. 936. 90. 935. 100. 100.
1978-09-02 18:00:00 105. 90. 935. 107. 936. 90. 935. 100. 105.
1978-09-03 00:00:00 105. 90. 945. 97. 950. 100. 935. 105. 105.
1978-09-03 06:00:00 100. 80. 965. 78. 970. 100. 940. 105. 100.
1978-09-03 12:00:00 95. 80. 980. 68. 980. 90. 945. 95. 95.
1978-09-03 18:00:00 90. 70. 985. 68. 980. 80. 950. 95. 90.
1978-09-04 00:00:00 80. 60. 985. 58. 984. 70. 960. 80. 80.
1978-09-04 06:00:00 75. 60. 985. 58. 987. 65. 975. 80. 75.
1978-09-04 12:00:00 65. 60. 990. 58. 988. 55. 985. 65. 65.
1978-09-04 18:00:00 60. 50. 990. 58. 986. 55. 990. 65. 60.
1978-09-05 00:00:00 55. 55. 980. 58. 982. 50. 985. 55. 55.
1978-09-05 06:00:00 55. 55. 980. 58. 976. 50. 980. 55. 55.
1978-09-05 12:00:00 60. 55. 975. 58. 974. 50. 975. 60. 60.
1978-09-05 18:00:00 65. 70. 970. 68. 970. 55. 975. 60. 65.
1978-09-06 00:00:00 70. 70. 970. 68. 970. 65. 980. 70. 70.
jtwc_wp tokyo cma hko td9636 ds824_wp
1978-09-06 06:00:00 65. 70. 970. 68. 970. 65. 980. 70. 65.
1978-09-06 12:00:00 55. 70. 975. 68. 970. 65. 980. 55. 55.
1978-09-06 18:00:00 50. 65. 980. 58. 975. 65. 980. 55. 50.
1978-09-07 00:00:00 45. 50. 985. 49. 985. 50. 985. 45. 45.
1978-09-07 06:00:00 40. 45. 992. 39. 990. 45. 990. 45. 40.
1978-09-07 12:00:00 35. 40. 992. 39. 995. 40. 990. 35. 35.
1978-09-07 18:00:00 35. 40. 992. 39. 995. 40. 990. 35. 35.
1978-09-08 00:00:00 40. 996. 39. 995. 40. 995.
1978-09-08 06:00:00 40. 996. 39. 995. 40. 995.
1978-09-08 12:00:00 40. 996. 39. 995. 40. 995.
1978-09-08 18:00:00 40. 996. 39. 995. 40. 995.
1978-09-09 00:00:00 40. 996. 39. 995. 40. 995.
1978-09-09 06:00:00 40. 998. 39. 995. 40. 995.
1978-09-09 12:00:00 35. 998. 29. 998. 35. 998.
1978-09-09 18:00:00 35. 1000. 29. 1000. 35. 998.
1978-09-10 00:00:00 1004. 23. 1004. 30. 1004.
1978-09-10 06:00:00 1004. 23. 1004. 25. 1004.
1978-09-10 12:00:00 1004. 23. 1004. 25. 1004.
1978-09-10 18:00:00 1006. 23. 1004.
1978-09-11 00:00:00 1008. 19. 1006.
1978-09-11 06:00:00 1008.

top of page Links to source data

Source Source file Format
jtwc_wp bwp151978.txt ATCF
tokyo bst_all.txt:Line=27303:FAYE:7815 JMA text table
cma CH1978BST.txt:Storm=19:Faye CMA text table
hko tc-besttrack-data.txt:Line=12220:FAYE HKO Text table
td9636 cons_worldwide_trop_cyclone_18710101-19891231-003:Line=26110 TD 9636
ds824_wp w_npac.dat:923:FAYE HURDAT